Create Custom Reports and Graphics: Custom Report

Squaw-Red Dog 6200'

Current Conditions

3/29/20 1:45 PM (-07:00)
Updated Every 15 Minutes
Temp 35.3 °F   1.5
RH 75 %   11
Dew Pt 28.0 °F   2.5
Wet Bulb 32.5 °F   0.1
Wind Dir NNW | 340 °
Wind Spd 9.0 mph   3.6
Wind Gust 13.5 mph   3.8
WindChill 29.3 °F   1.5
Daily Min Temp 29.6 °F   9.3
Daily Max Temp 37.9 °F   0.8
Latest Rain 0.00 In
Daily Rain 0.00 In
New Snow 2.8 in
SnowDepth 110.2 in

Last 24 Hours

Squaw-Red Dog 6200'

Hourly Data | America/Los_Angeles
as of 3/29/20 1:54 PM PDT
Date & Time Temp (°F) RH (%) Dew Pt (°F) Wet Bulb (°F) Wind Dir (°) Wind Spd (mph) Wind Gust (mph) Latest Rain (In) New Snow (in) SnowDepth (in) Daily Min Temp (°F) Daily Max Temp (°F) Daily Rain (In)
3/29/20 - 1300 36.4 68 26.8 32.8 N | 351 7.5 13.0 0.00 3.2 110.8 29.6 37.9 0.00
3/29/20 - 1200 36.0 65 25.4 32.1 N | 3 5.1 10.3 0.00 3.6 7.4 29.6 37.8 0.00
3/29/20 - 1100 34.7 78 28.4 32.2 N | 350 2.1 6.2 0.00 3.4 110.2 29.6 37.8 0.00
3/29/20 - 1000 34.7 78 28.5 32.3 SSE | 160 1.4 4.5 0.00 3.3 9.0 29.6 37.2 0.00
3/29/20 - 0900 34.8 79 28.8 32.4 WSW | 250 1.5 4.5 0.00 2.4 9.5 29.6 34.8 0.00
3/29/20 - 0800 31.8 91 29.4 30.8 S | 180 1.6 4.1 0.00 3.2 10.9 29.6 31.8 0.00
3/29/20 - 0700 29.7 94 28.2 29.1 NW | 315 4.2 10.2 0.00 2.1 11.9 29.6 31.7 0.00
3/29/20 - 0600 31.3 84 27.1 29.7 NNW | 335 5.1 10.4 0.00 3.3 10.9 29.6 31.7 0.00
3/29/20 - 0500 31.4 82 26.5 29.6 NNW | 343 5.4 10.7 0.00 3.3 11.4 29.6 31.7 0.00
3/29/20 - 0400 31.0 86 27.2 29.6 NNW | 344 2.9 8.3 0.00 3.4 11.4 29.6 31.5 0.00
3/29/20 - 0300 30.0 95 28.7 29.4 WSW | 256 0.8 2.8 0.00 3.4 11.9 29.6 31.0 0.00
3/29/20 - 0200 30.0 94 28.6 29.4 WSW | 237 0.5 2.0 0.00 3.4 11.9 29.6 31.0 0.00
3/29/20 - 0100 29.8 94 28.2 29.1 W | 269 1.4 5.2 0.00 3.2 11.9 29.8 31.0 0.00
3/29/20 - 0000 31.0 87 27.6 29.7 W | 277 1.7 4.6 0.00 3.3 11.4 20.3 39.6 0.00
3/28/20 - 2300 31.0 90 28.4 30.0 SSW | 213 1.4 5.8 0.00 3.3 106.6 20.3 39.6 0.00
3/28/20 - 2200 31.9 86 28.4 30.5 NNW | 342 2.6 9.5 0.00 3.3 106.5 20.3 39.6 0.00
3/28/20 - 2100 32.3 82 27.4 30.5 NNW | 348 4.1 9.3 0.00 3.3 108.1 20.3 39.6 0.00
3/28/20 - 2000 32.3 83 27.8 30.6 NNW | 333 4.5 13.0 0.00 3.3 106.8 20.3 39.6 0.00
3/28/20 - 1900 33.0 82 28.1 31.1 N | 349 3.9 12.2 0.00 3.2 109.2 20.3 39.6 0.00
3/28/20 - 1800 33.8 82 28.9 31.9 N | 356 3.3 10.8 0.00 3.2 109.2 20.3 39.6 0.00
3/28/20 - 1700 36.0 70 27.2 32.7 NNW | 347 2.3 10.4 0.00 3.2 110.9 20.3 39.6 0.00
3/28/20 - 1600 37.4 69 28.1 33.8 N | 11 2.4 8.1 0.00 3.2 111.3 20.3 39.6 0.00
3/28/20 - 1500 37.6 67 27.4 33.7 NNE | 26 3.5 12.6 0.00 3.2 111.4 20.3 39.6 0.00
3/28/20 - 1400 36.4 63 25.1 32.2 NNE | 28 4.1 10.0 0.00 3.2 111.3 20.3 39.2 0.00
3/28/20 - 1300 36.2 59 23.2 31.5 N | 4 6.8 12.7 0.00 3.6 111.4 20.3 36.7 0.00
Max 37.6 95 29.4 33.8 - 7.5 13.0 0.00 3.6 111.4 29.8 39.6 0.00
Avg 33.2 80 27.6 31.1 - 3.2 8.4 0.00 3.2 62.1 - - -
Min 29.7 59 23.2 29.1 - 0.5 2.0 0.00 2.1 7.4 20.3 31.0 0.00
Total - - - - - - - 0.00 - - - - -

Last 30 Days

Squaw-Red Dog 6200'

Daily Data | America/Los_Angeles
as of 3/29/20 1:54 PM PDT
Date Daily Max Temp (°F) Max Temp Time Daily Min Temp (°F) Min Temp Time Daily Rain (In) New Snow (in) SnowDepth (in) Wind Spd (mph) Daily Max Wind (mph) Max Wind Time Max Wind Dir (°) Max RH (%) Min RH (%) Wet Bulb (°F) WetB Hrs <28F (hrs) Bat Volt Min Day (V)
3/28/20 39.6 1420 20.3 0543 0.00 3.3 11.4 2.5 13.7 1036 N | 1 100 54 27.5 - 12.5
3/27/20 36.1 1558 6.9 0642 0.00 3.7 112.7 4.1 19.9 1507 NW | 326 94 46 21.0 - 12.4
3/26/20 37.0 1245 13.4 0001 0.00 4.2 110.6 1.7 14.9 1804 SE | 141 94 40 20.4 - 12.4
3/25/20 29.9 1632 19.3 0001 0.00 4.1 17.4 6.1 21.2 1350 NNW | 336 96 59 23.6 - 12.4
3/24/20 35.3 0001 26.8 2354 0.00 2.5 13.5 7.7 29.8 0042 W | 262 98 61 29.7 8.8 12.4
3/23/20 37.9 1506 21.5 0559 0.00 18.5 108.4 7.6 32.1 1807 NNW | 347 97 72 29.7 - 12.4
3/22/20 53.0 1419 19.0 0700 0.00 20.9 110.0 2.2 17.8 1757 NNW | 348 98 29 28.8 - 12.4
3/21/20 49.1 1547 18.7 0639 0.00 21.2 111.2 1.4 9.8 1312 SSW | 202 97 36 - - 12.4
3/20/20 - 0001 - 0001 0.00 25.9 114.9 1.4 11.4 1016 WSW | 240 94 54 - 15.6 12.4
3/19/20 - 1852 17.7 0755 0.00 28.2 117.9 1.7 9.4 1551 NNW | 337 95 38 - - 12.4
3/18/20 - 0001 - 0001 0.00 43.4 118.5 3.9 15.8 1455 NW | 318 95 69 - - 12.4
3/17/20 28.2 1359 20.8 0726 0.00 - 14.9 5.0 20.4 1314 NNW | 342 100 60 - - 12.4
3/16/20 - 0001 - 0001 0.00 - 13.4 2.0 13.7 0918 NNW | 327 100 94 - 19.2 12.4
3/15/20 30.1 1648 25.7 2342 0.00 28.1 13.9 3.8 18.9 0756 NW | 326 99 91 - - 12.4
3/14/20 35.8 0017 26.7 2230 0.00 12.4 13.5 4.5 24.1 0203 NNE | 18 99 80 29.3 18.1 12.4
3/13/20 48.5 1211 23.2 0652 0.00 - 83.8 7.9 32.5 2258 N | 4 86 26 32.3 - 12.4
3/12/20 56.5 1645 26.2 0528 0.00 - 84.5 2.7 18.7 1127 S | 175 100 28 33.7 16.4 12.4
3/11/20 59.1 1413 26.5 0545 0.00 - 85.7 1.6 10.0 1813 NNW | 347 98 33 35.0 15.2 12.4
3/10/20 53.8 1655 26.9 0805 0.00 - 86.4 2.1 15.1 1309 SSE | 163 97 35 33.8 8.1 12.4
3/9/20 45.6 1620 27.4 0735 0.00 0.1 85.8 2.6 14.1 1358 NNW | 330 95 35 32.2 6.4 12.4
3/8/20 38.1 1320 29.5 0622 0.00 0.5 11.4 3.7 14.1 1743 NNE | 13 96 57 - 0.0 12.4
3/7/20 43.0 0017 30.0 2124 0.00 0.5 11.4 4.2 20.0 0745 N | 2 96 52 31.7 0.0 12.4
3/6/20 54.6 1400 41.5 2342 0.00 - 85.4 5.8 20.7 1612 NNE | 32 57 27 37.6 0.0 12.4
3/5/20 57.0 1430 24.8 0625 0.00 0.1 84.2 4.2 19.9 1105 NE | 37 87 29 35.2 23.9 12.4
3/4/20 58.8 1434 23.1 0615 0.00 1.2 86.8 1.9 10.7 1304 N | 350 95 18 33.0 - 12.4
3/3/20 55.7 1535 20.0 0632 0.00 2.4 88.3 1.3 8.8 1309 SW | 222 97 32 31.0 - 12.4
3/2/20 40.8 1455 11.7 0712 0.00 3.8 88.1 3.4 15.3 1425 S | 182 95 26 23.1 - 12.4
3/1/20 29.4 0001 14.4 2359 0.00 6.0 89.5 4.6 20.5 1234 SSW | 204 98 63 22.6 - 12.4
2/29/20 45.5 1310 29.3 2250 0.00 1.4 11.9 10.2 32.2 1254 NNW | 348 97 26 33.4 0.0 12.4
2/28/20 53.3 1309 25.5 0606 0.00 - 85.6 3.0 18.0 1331 NNW | 345 89 24 33.4 - 12.4
Max 59.1 - 41.5 - 0.00 43.4 118.5 10.2 32.5 - - 100 94 37.6 23.9 12.5
Avg - - - - - 10.6 69.0 3.8 - - - - - 29.9 - -
Min 28.2 - 6.9 - 0.00 0.1 11.4 1.3 8.8 - - 57 18 20.4 0.0 12.4
Calm: 0.0%
Calm: 0.1%